Time;durP1;ratioP1;P1;durP2;ratioP2;P2;SDS_P1;SDS_P2;PMS_P1;PMS_P2;Temp;Humidity;BMP_temperature;BMP_pressure;BME280_temperature;BME280_humidity;BME280_pressure;Samples;Min_cycle;Max_cycle;Signal;HPM_P1;HPM_P2
2023/06/02 00:01:34;;;;;;;5.82;2.60;;;17.70;82.40;;;;;;5087996;28;20028;-73
2023/06/02 00:04:01;;;;;;;5.15;2.72;;;17.70;82.60;;;;;;5087185;28;20161;-74
2023/06/02 00:06:30;;;;;;;4.30;2.30;;;17.60;82.60;;;;;;5086073;28;20043;-73
2023/06/02 00:08:57;;;;;;;4.72;2.67;;;17.60;82.70;;;;;;5091027;28;20571;-76
2023/06/02 00:11:36;;;;;;;4.07;2.40;;;17.50;82.80;;;;;;5083944;28;20112;-74
2023/06/02 00:14:03;;;;;;;7.30;2.63;;;17.50;83.20;;;;;;5087925;28;20162;-73
2023/06/02 00:16:46;;;;;;;5.20;2.70;;;17.50;83.40;;;;;;5089817;28;20074;-73
2023/06/02 00:19:13;;;;;;;4.38;2.45;;;17.40;83.50;;;;;;5083841;28;20028;-74
2023/06/02 00:21:41;;;;;;;3.60;2.55;;;17.40;83.70;;;;;;5088035;28;20044;-73
2023/06/02 00:24:12;;;;;;;5.30;2.72;;;17.40;83.70;;;;;;5085174;28;20023;-74
2023/06/02 00:26:38;;;;;;;5.53;2.58;;;17.30;83.60;;;;;;5086759;28;20020;-73
2023/06/02 00:29:15;;;;;;;4.38;2.28;;;17.30;83.90;;;;;;5087861;28;20043;-74
2023/06/02 00:31:41;;;;;;;6.38;3.08;;;17.30;84.10;;;;;;5081838;28;20111;-74
2023/06/02 00:34:13;;;;;;;4.60;2.42;;;17.20;84.20;;;;;;5085923;28;20110;-74
2023/06/02 00:36:38;;;;;;;5.95;2.70;;;17.20;84.30;;;;;;5086673;28;20028;-72
2023/06/02 00:39:10;;;;;;;5.20;2.67;;;17.20;84.60;;;;;;5085152;28;20036;-72
2023/06/02 00:41:39;;;;;;;5.53;2.85;;;17.10;85.00;;;;;;5083451;28;20069;-72
2023/06/02 00:44:05;;;;;;;5.53;2.55;;;17.00;84.90;;;;;;5082528;28;20027;-74
2023/06/02 00:46:33;;;;;;;5.35;2.63;;;17.00;85.10;;;;;;5085727;28;20020;-75
2023/06/02 00:49:05;;;;;;;6.55;2.92;;;16.90;85.40;;;;;;5103070;28;20054;-74
2023/06/02 00:51:31;;;;;;;4.60;2.50;;;16.90;85.70;;;;;;5088833;28;20110;-73
2023/06/02 00:53:57;;;;;;;7.25;2.60;;;16.90;85.90;;;;;;5083178;28;20115;-74
2023/06/02 00:56:26;;;;;;;8.00;3.03;;;16.80;86.10;;;;;;5086261;28;20024;-74
2023/06/02 00:58:53;;;;;;;5.40;2.78;;;16.70;86.20;;;;;;5084879;28;20088;-75
2023/06/02 01:01:22;;;;;;;4.80;2.38;;;16.70;86.50;;;;;;5087611;28;20069;-73
2023/06/02 01:03:49;;;;;;;6.18;2.85;;;16.70;86.70;;;;;;5087028;28;20020;-74
2023/06/02 01:06:34;;;;;;;5.55;2.40;;;16.60;86.80;;;;;;5089265;28;20025;-74
2023/06/02 01:09:05;;;;;;;5.28;2.58;;;16.60;87.10;;;;;;5089998;28;20020;-74
2023/06/02 01:11:32;;;;;;;4.93;3.10;;;16.60;87.20;;;;;;5087291;28;20020;-75
2023/06/02 01:14:01;;;;;;;4.13;2.30;;;16.50;87.20;;;;;;5085785;28;20391;-73
2023/06/02 01:16:27;;;;;;;6.88;2.95;;;16.50;87.30;;;;;;5086257;28;20032;-74
2023/06/02 01:18:53;;;;;;;5.78;3.45;;;16.50;87.40;;;;;;5087713;28;20040;-74
2023/06/02 01:21:23;;;;;;;5.55;3.10;;;16.40;87.50;;;;;;5084190;28;20036;-74
2023/06/02 01:23:57;;;;;;;5.38;2.63;;;16.40;87.90;;;;;;5088850;28;20075;-74
2023/06/02 01:26:29;;;;;;;5.05;2.50;;;16.40;88.60;;;;;;5085291;28;20076;-74
2023/06/02 01:28:54;;;;;;;3.50;2.33;;;16.30;88.00;;;;;;5084091;28;20180;-74
2023/06/02 01:31:25;;;;;;;6.30;2.90;;;16.30;88.20;;;;;;5087913;28;20028;-74
2023/06/02 01:34:20;;;;;;;4.68;2.70;;;16.20;88.30;;;;;;5086657;28;20016;-74
2023/06/02 01:36:48;;;;;;;4.30;3.03;;;16.20;88.40;;;;;;5073574;28;20626;-73
2023/06/02 01:39:19;;;;;;;10.52;3.47;;;16.20;88.50;;;;;;5085234;28;20482;-73
2023/06/02 01:41:46;;;;;;;6.13;3.10;;;16.10;88.60;;;;;;5083836;28;20021;-74
2023/06/02 01:44:12;;;;;;;4.88;3.15;;;16.20;88.80;;;;;;5086409;28;20153;-74
2023/06/02 01:46:44;;;;;;;5.25;2.83;;;16.10;88.90;;;;;;5082547;28;20024;-74
2023/06/02 01:49:17;;;;;;;4.03;2.65;;;16.10;88.90;;;;;;5085799;28;20032;-73
2023/06/02 01:51:43;;;;;;;7.65;2.72;;;16.00;89.10;;;;;;5082410;28;20028;-73
2023/06/02 01:54:09;;;;;;;5.72;3.13;;;16.00;89.20;;;;;;5081365;28;20035;-73
2023/06/02 01:56:35;;;;;;;5.90;3.33;;;15.90;89.40;;;;;;5084995;28;20036;-75
2023/06/02 01:59:01;;;;;;;6.30;3.13;;;15.90;89.50;;;;;;5087543;28;20064;-74
2023/06/02 02:01:30;;;;;;;5.50;2.65;;;15.90;89.70;;;;;;5085165;28;20392;-74
2023/06/02 02:03:57;;;;;;;5.05;2.85;;;15.90;89.80;;;;;;5084825;28;20052;-74
2023/06/02 02:06:29;;;;;;;4.70;2.55;;;15.80;89.90;;;;;;5082582;28;20020;-74
2023/06/02 02:08:56;;;;;;;5.25;3.40;;;15.80;89.90;;;;;;5098866;27;20044;-74
2023/06/02 02:11:22;;;;;;;5.45;2.88;;;15.80;90.00;;;;;;5082676;28;20576;-74
2023/06/02 02:13:48;;;;;;;4.70;3.30;;;15.80;90.00;;;;;;5084960;28;20123;-73
2023/06/02 02:16:16;;;;;;;5.18;2.95;;;15.70;90.10;;;;;;5085593;28;20081;-73
2023/06/02 02:18:43;;;;;;;4.80;2.60;;;15.70;90.00;;;;;;5085329;28;20059;-73
2023/06/02 02:21:10;;;;;;;7.15;2.80;;;15.70;90.10;;;;;;5084825;28;20083;-73
2023/06/02 02:23:39;;;;;;;5.63;3.15;;;15.60;90.10;;;;;;5082779;28;20103;-74
2023/06/02 02:26:05;;;;;;;4.40;2.60;;;15.50;90.20;;;;;;5086881;28;20027;-73
2023/06/02 02:28:30;;;;;;;12.93;3.15;;;15.50;90.10;;;;;;5085084;28;20030;-73
2023/06/02 02:30:56;;;;;;;6.68;3.58;;;15.50;90.30;;;;;;5083229;28;20375;-74
2023/06/02 02:33:22;;;;;;;6.47;3.28;;;15.50;90.50;;;;;;5080552;28;20039;-73
2023/06/02 02:35:47;;;;;;;8.15;3.20;;;15.40;90.60;;;;;;5086289;28;20031;-74
2023/06/02 02:38:13;;;;;;;5.80;3.30;;;15.40;90.60;;;;;;5088213;28;20635;-73
2023/06/02 02:40:39;;;;;;;9.98;3.25;;;15.30;90.50;;;;;;5084996;28;20081;-73
2023/06/02 02:43:04;;;;;;;5.30;3.30;;;15.30;90.50;;;;;;5085958;28;20556;-73
2023/06/02 02:45:30;;;;;;;7.32;3.00;;;15.30;90.50;;;;;;5088460;28;20469;-74
2023/06/02 02:47:56;;;;;;;4.13;3.05;;;15.30;90.70;;;;;;5082213;28;20111;-73
2023/06/02 02:50:21;;;;;;;5.95;2.60;;;15.20;90.80;;;;;;5081220;28;20020;-73
2023/06/02 02:52:47;;;;;;;4.90;3.10;;;15.20;90.80;;;;;;5082425;28;20023;-73
2023/06/02 02:55:19;;;;;;;4.55;2.97;;;15.20;90.90;;;;;;5083580;28;20081;-73
2023/06/02 02:57:44;;;;;;;5.65;2.90;;;15.10;91.00;;;;;;5085875;28;20490;-73
2023/06/02 03:00:10;;;;;;;5.13;3.40;;;15.10;91.10;;;;;;5084672;28;20120;-73
2023/06/02 03:02:40;;;;;;;6.57;3.13;;;15.00;91.20;;;;;;5087758;28;20397;-73
2023/06/02 03:05:06;;;;;;;9.98;3.38;;;15.00;91.20;;;;;;5082218;28;20107;-73
2023/06/02 03:07:34;;;;;;;5.68;3.15;;;15.00;91.20;;;;;;5083319;28;20037;-73
2023/06/02 03:10:02;;;;;;;7.82;3.78;;;15.00;91.30;;;;;;5082403;28;20073;-73
2023/06/02 03:12:28;;;;;;;5.60;3.20;;;14.90;91.60;;;;;;5086124;28;20020;-73
2023/06/02 03:14:57;;;;;;;5.10;3.08;;;14.90;91.30;;;;;;5082641;28;21859;-73
2023/06/02 03:17:22;;;;;;;8.73;3.83;;;14.90;91.40;;;;;;5084486;28;20482;-73
2023/06/02 03:19:48;;;;;;;4.38;2.63;;;14.90;91.40;;;;;;5080298;28;20020;-73
2023/06/02 03:22:14;;;;;;;6.28;3.55;;;14.80;91.40;;;;;;5079578;28;20032;-73
2023/06/02 03:24:40;;;;;;;7.95;3.22;;;14.80;91.30;;;;;;5085602;28;20027;-73
2023/06/02 03:27:13;;;;;;;7.78;3.45;;;14.80;91.30;;;;;;5083309;28;20028;-74
2023/06/02 03:29:39;;;;;;;7.00;3.15;;;14.70;91.30;;;;;;5079816;28;20436;-73
2023/06/02 03:32:12;;;;;;;4.88;3.22;;;14.70;91.30;;;;;;5082836;28;20147;-73
2023/06/02 03:34:44;;;;;;;9.45;3.53;;;14.70;91.30;;;;;;5086724;28;20024;-74
2023/06/02 03:37:11;;;;;;;8.90;3.92;;;14.60;91.40;;;;;;5082815;28;20028;-74
2023/06/02 03:39:40;;;;;;;7.55;4.22;;;14.60;91.40;;;;;;5085337;28;20080;-73
2023/06/02 03:42:06;;;;;;;7.65;3.80;;;14.50;91.50;;;;;;5085072;28;20071;-73
2023/06/02 03:44:38;;;;;;;7.90;4.15;;;14.50;91.50;;;;;;5086512;28;20051;-74
2023/06/02 03:47:03;;;;;;;7.60;3.25;;;14.50;91.50;;;;;;5088855;28;20386;-74
2023/06/02 03:49:31;;;;;;;8.48;3.53;;;14.50;91.50;;;;;;5086757;28;20018;-73
2023/06/02 03:51:57;;;;;;;8.18;3.42;;;14.50;91.50;;;;;;5083464;28;20421;-74
2023/06/02 03:54:22;;;;;;;11.20;4.00;;;14.50;91.50;;;;;;5086334;28;20035;-73
2023/06/02 03:56:49;;;;;;;7.80;3.42;;;14.50;91.60;;;;;;5088317;28;20036;-73
2023/06/02 03:59:15;;;;;;;8.05;3.42;;;14.50;91.60;;;;;;5085500;28;20253;-73
2023/06/02 04:01:44;;;;;;;11.73;3.97;;;14.50;91.60;;;;;;5088836;28;20374;-74
2023/06/02 04:04:11;;;;;;;7.70;4.00;;;14.50;91.60;;;;;;5090327;28;20153;-74
2023/06/02 04:06:40;;;;;;;6.43;3.63;;;14.50;91.60;;;;;;5088023;28;20048;-73
2023/06/02 04:09:07;;;;;;;10.82;3.35;;;14.50;91.60;;;;;;5084372;28;21247;-74
2023/06/02 04:11:32;;;;;;;9.25;3.92;;;14.50;91.60;;;;;;5088505;28;20103;-73
2023/06/02 04:13:58;;;;;;;5.53;3.70;;;14.50;91.70;;;;;;5088857;28;20158;-74
2023/06/02 04:16:26;;;;;;;8.45;3.70;;;14.50;91.60;;;;;;5088880;28;20016;-74
2023/06/02 04:18:53;;;;;;;9.25;3.80;;;14.50;91.70;;;;;;5084285;28;20402;-74
2023/06/02 04:21:21;;;;;;;8.38;4.20;;;14.50;91.60;;;;;;5087989;28;20028;-73
2023/06/02 04:23:47;;;;;;;5.82;3.80;;;14.50;91.60;;;;;;5087836;28;20034;-73
2023/06/02 04:26:13;;;;;;;7.45;3.88;;;14.50;91.60;;;;;;5087963;28;20036;-73
2023/06/02 04:28:38;;;;;;;7.07;3.97;;;14.60;91.60;;;;;;5088723;28;20881;-74
2023/06/02 04:31:05;;;;;;;7.03;4.07;;;14.70;91.50;;;;;;5082062;28;20108;-74
2023/06/02 04:33:31;;;;;;;9.98;4.00;;;14.80;91.40;;;;;;5090193;28;20024;-74
2023/06/02 04:35:57;;;;;;;7.35;4.05;;;14.80;91.30;;;;;;5090198;28;20027;-72
2023/06/02 04:38:24;;;;;;;9.20;4.25;;;14.90;91.20;;;;;;5085104;28;20055;-72
2023/06/02 04:40:50;;;;;;;7.28;4.35;;;15.00;91.10;;;;;;5080753;28;20097;-73
2023/06/02 04:43:19;;;;;;;6.25;4.40;;;15.00;90.90;;;;;;5082736;28;20020;-74
2023/06/02 04:45:45;;;;;;;9.55;4.40;;;15.00;90.80;;;;;;5090391;28;20068;-73
2023/06/02 04:48:12;;;;;;;6.43;3.83;;;15.10;90.90;;;;;;5091014;28;20127;-71
2023/06/02 04:50:41;;;;;;;7.93;4.80;;;15.10;90.90;;;;;;5091442;28;20028;-70
2023/06/02 04:53:07;;;;;;;9.40;4.20;;;15.20;90.90;;;;;;5086501;28;20119;-71
2023/06/02 04:55:33;;;;;;;7.72;4.28;;;15.20;90.90;;;;;;5089457;28;20210;-70
2023/06/02 04:57:58;;;;;;;11.77;5.70;;;15.30;90.90;;;;;;5078759;28;20456;-73
2023/06/02 05:00:24;;;;;;;9.00;4.40;;;15.30;90.80;;;;;;5087653;28;20040;-73
2023/06/02 05:02:50;;;;;;;10.82;4.47;;;15.50;90.70;;;;;;5082650;28;20027;-73
2023/06/02 05:05:15;;;;;;;8.23;3.95;;;15.60;90.50;;;;;;5089178;28;20051;-73
2023/06/02 05:07:41;;;;;;;9.48;4.43;;;15.70;90.40;;;;;;5089321;28;20519;-73
2023/06/02 05:10:07;;;;;;;9.52;4.25;;;15.90;90.30;;;;;;5084717;28;20036;-73
2023/06/02 05:12:33;;;;;;;8.85;4.35;;;16.00;90.00;;;;;;5083807;28;20028;-73
2023/06/02 05:14:58;;;;;;;8.65;4.50;;;16.10;89.10;;;;;;5089763;28;20070;-72
2023/06/02 05:17:27;;;;;;;10.35;4.72;;;16.20;88.70;;;;;;5088141;28;20536;-74
2023/06/02 05:19:54;;;;;;;7.20;4.47;;;16.30;88.30;;;;;;5068087;22;20033;-74
2023/06/02 05:22:20;;;;;;;7.53;4.65;;;16.50;88.20;;;;;;5046777;28;20017;-73
2023/06/02 05:24:46;;;;;;;8.55;4.57;;;16.60;87.50;;;;;;5032176;28;20126;-73
2023/06/02 05:27:12;;;;;;;10.30;4.32;;;16.60;87.10;;;;;;5027462;28;20467;-73
2023/06/02 05:29:38;;;;;;;9.48;4.55;;;16.60;86.90;;;;;;5021984;28;21969;-73
2023/06/02 05:32:05;;;;;;;7.05;5.43;;;16.60;86.80;;;;;;5029445;28;20037;-73
2023/06/02 05:34:32;;;;;;;11.30;5.00;;;16.60;85.60;;;;;;5040110;28;20033;-72
2023/06/02 05:36:58;;;;;;;8.02;5.05;;;16.50;86.10;;;;;;5040757;28;20481;-73
2023/06/02 05:39:24;;;;;;;13.25;5.65;;;16.40;85.10;;;;;;5041727;28;20033;-71
2023/06/02 05:41:49;;;;;;;10.52;4.85;;;16.40;85.30;;;;;;5057398;28;20407;-71
2023/06/02 05:44:15;;;;;;;13.35;5.93;;;16.50;85.80;;;;;;5042506;28;20029;-72
2023/06/02 05:46:41;;;;;;;8.80;5.05;;;16.40;85.80;;;;;;5044503;28;20026;-71
2023/06/02 05:49:06;;;;;;;10.18;5.15;;;16.40;85.60;;;;;;5042519;28;20055;-71
2023/06/02 05:51:32;;;;;;;10.27;6.10;;;16.40;85.20;;;;;;5039992;28;20025;-73
2023/06/02 05:53:57;;;;;;;9.27;5.35;;;16.40;85.60;;;;;;5041653;28;20123;-71
2023/06/02 05:56:26;;;;;;;10.45;5.80;;;16.40;85.40;;;;;;5045713;28;20044;-73
2023/06/02 05:58:55;;;;;;;9.35;5.40;;;16.30;85.60;;;;;;5043324;28;20506;-73
2023/06/02 06:01:20;;;;;;;12.27;6.38;;;16.40;85.70;;;;;;5038701;28;20051;-75
2023/06/02 06:03:46;;;;;;;11.13;6.20;;;16.30;85.90;;;;;;5038870;28;20471;-73
2023/06/02 06:06:12;;;;;;;9.68;5.30;;;16.30;85.80;;;;;;5046356;28;20110;-73
2023/06/02 06:08:38;;;;;;;10.70;6.50;;;16.30;86.00;;;;;;5041082;28;20044;-73
2023/06/02 06:11:04;;;;;;;10.00;6.22;;;16.40;86.00;;;;;;5038449;28;20054;-73
2023/06/02 06:13:29;;;;;;;10.73;6.45;;;16.40;85.90;;;;;;5040490;28;20036;-73
2023/06/02 06:15:55;;;;;;;9.57;5.40;;;16.40;85.80;;;;;;5036080;28;20025;-72
2023/06/02 06:18:21;;;;;;;13.40;6.60;;;16.60;85.80;;;;;;5045678;28;20037;-70
2023/06/02 06:20:49;;;;;;;11.10;5.88;;;16.60;85.30;;;;;;5043539;28;20029;-72
2023/06/02 06:23:15;;;;;;;12.25;5.75;;;16.70;85.20;;;;;;5038301;28;20029;-69
2023/06/02 06:25:41;;;;;;;12.10;6.13;;;16.60;85.40;;;;;;5040525;28;20029;-70
2023/06/02 06:28:07;;;;;;;11.18;6.35;;;16.60;85.80;;;;;;5043372;28;20529;-70
2023/06/02 06:30:38;;;;;;;10.52;5.63;;;16.50;86.40;;;;;;5043443;28;21255;-72
2023/06/02 06:33:03;;;;;;;10.55;7.00;;;16.50;86.80;;;;;;5045599;28;20048;-70
2023/06/02 06:35:29;;;;;;;10.85;6.68;;;16.60;86.80;;;;;;5040679;28;20060;-73
2023/06/02 06:37:56;;;;;;;10.00;6.38;;;16.60;87.00;;;;;;5040981;28;20471;-72
2023/06/02 06:40:22;;;;;;;11.98;6.07;;;16.70;87.10;;;;;;5040568;28;20036;-72
2023/06/02 06:42:47;;;;;;;12.50;5.75;;;16.70;87.30;;;;;;5046458;28;20032;-72
2023/06/02 06:45:16;;;;;;;11.82;6.03;;;16.80;87.20;;;;;;5043181;28;20558;-72
2023/06/02 06:47:41;;;;;;;10.57;6.28;;;16.90;87.00;;;;;;5047269;28;20025;-72
2023/06/02 06:50:07;;;;;;;8.18;5.63;;;17.00;87.10;;;;;;5046830;28;20021;-73
2023/06/02 06:52:45;;;;;;;11.07;6.18;;;17.10;86.70;;;;;;5059531;28;20032;-72
2023/06/02 06:55:10;;;;;;;12.05;6.57;;;17.00;86.70;;;;;;5046763;28;20029;-72
2023/06/02 06:57:39;;;;;;;12.88;6.85;;;17.00;86.90;;;;;;5040949;28;20086;-72
2023/06/02 07:00:05;;;;;;;9.60;6.32;;;17.10;87.10;;;;;;5037141;28;20591;-72
2023/06/02 07:02:32;;;;;;;11.07;6.18;;;17.10;87.20;;;;;;5042725;28;20025;-72
2023/06/02 07:04:58;;;;;;;11.38;6.68;;;17.00;87.20;;;;;;5048404;28;20104;-72
2023/06/02 07:07:26;;;;;;;15.00;7.18;;;17.00;87.40;;;;;;5040699;28;20112;-72
2023/06/02 07:09:53;;;;;;;11.02;6.70;;;17.10;87.40;;;;;;5042792;28;20033;-73
2023/06/02 07:12:18;;;;;;;11.38;6.55;;;17.10;87.30;;;;;;5041218;28;22645;-72
2023/06/02 07:14:54;;;;;;;10.32;6.55;;;17.10;87.30;;;;;;5040419;28;20028;-72
2023/06/02 07:17:25;;;;;;;11.32;6.63;;;17.20;87.10;;;;;;5038368;28;20405;-72
2023/06/02 07:19:54;;;;;;;9.10;5.75;;;17.30;86.90;;;;;;5043541;28;20402;-72
2023/06/02 07:22:21;;;;;;;12.93;7.43;;;17.40;86.60;;;;;;5048623;28;20032;-74
2023/06/02 07:24:53;;;;;;;11.63;7.15;;;17.40;86.10;;;;;;5047949;28;20032;-72
2023/06/02 07:27:27;;;;;;;8.57;5.70;;;17.40;85.80;;;;;;5052285;28;20053;-73
2023/06/02 07:29:56;;;;;;;12.00;7.07;;;17.40;86.10;;;;;;5046744;28;20094;-72
2023/06/02 07:32:28;;;;;;;10.55;6.72;;;17.30;85.90;;;;;;5049299;28;20090;-72
2023/06/02 07:34:54;;;;;;;13.68;7.18;;;17.40;86.00;;;;;;5047068;28;20046;-72
2023/06/02 07:37:20;;;;;;;12.77;6.72;;;17.40;86.00;;;;;;5049490;28;20037;-72
2023/06/02 07:39:46;;;;;;;10.63;7.53;;;17.40;86.10;;;;;;5049533;28;20496;-72
2023/06/02 07:42:12;;;;;;;11.50;6.85;;;17.30;86.10;;;;;;5048924;28;20029;-72
2023/06/02 07:44:37;;;;;;;15.23;7.07;;;17.30;86.70;;;;;;5048857;28;20021;-73
2023/06/02 07:47:06;;;;;;;11.93;6.63;;;17.30;86.90;;;;;;5047972;28;20017;-72
2023/06/02 07:49:38;;;;;;;12.50;6.53;;;17.40;86.30;;;;;;5048140;28;20037;-72
2023/06/02 07:52:04;;;;;;;11.52;6.93;;;17.40;86.20;;;;;;5043106;28;20052;-72
2023/06/02 07:54:30;;;;;;;12.68;7.47;;;17.30;86.30;;;;;;5045990;28;20176;-73
2023/06/02 07:56:56;;;;;;;12.23;7.32;;;17.30;86.50;;;;;;5045912;28;20037;-73
2023/06/02 07:59:23;;;;;;;15.45;7.13;;;17.40;87.10;;;;;;5047028;28;20037;-72
2023/06/02 08:01:51;;;;;;;12.57;7.38;;;17.40;87.30;;;;;;5045769;28;20017;-73
2023/06/02 08:04:17;;;;;;;13.07;7.10;;;17.50;87.00;;;;;;5043642;28;20400;-71
2023/06/02 08:06:49;;;;;;;14.75;7.85;;;17.50;86.80;;;;;;5048354;28;20036;-72
2023/06/02 08:09:20;;;;;;;13.07;7.22;;;17.60;86.80;;;;;;5046447;28;20340;-72
2023/06/02 08:11:48;;;;;;;14.57;7.35;;;17.60;87.00;;;;;;5047054;28;20373;-72
2023/06/02 08:14:14;;;;;;;14.82;7.72;;;17.80;87.20;;;;;;5043042;28;20123;-71
2023/06/02 08:16:41;;;;;;;14.60;7.97;;;17.80;86.90;;;;;;5046831;28;21348;-71
2023/06/02 08:19:07;;;;;;;14.25;7.70;;;17.80;87.10;;;;;;5045582;28;20025;-71
2023/06/02 08:21:39;;;;;;;14.20;7.78;;;17.80;87.10;;;;;;5048605;28;20060;-70
2023/06/02 08:24:05;;;;;;;12.05;7.13;;;17.90;87.00;;;;;;5057035;28;20059;-72
2023/06/02 08:26:31;;;;;;;13.20;7.93;;;17.90;87.20;;;;;;5043978;28;20029;-72
2023/06/02 08:28:57;;;;;;;12.00;7.45;;;18.00;87.10;;;;;;5057479;28;20020;-72
2023/06/02 08:31:23;;;;;;;10.75;7.00;;;18.10;86.90;;;;;;5059069;28;20036;-73
2023/06/02 08:33:52;;;;;;;15.15;7.57;;;18.10;86.00;;;;;;5045742;28;20017;-73
2023/06/02 08:36:20;;;;;;;15.52;7.47;;;18.20;85.90;;;;;;5043368;28;20021;-72
2023/06/02 08:38:54;;;;;;;10.80;7.43;;;18.20;85.80;;;;;;5042910;28;20021;-72
2023/06/02 08:41:26;;;;;;;12.57;7.47;;;18.30;85.80;;;;;;5046681;28;20080;-73
2023/06/02 08:43:52;;;;;;;12.05;7.30;;;18.30;85.60;;;;;;5046172;28;20108;-72
2023/06/02 08:46:17;;;;;;;13.68;7.43;;;18.30;85.70;;;;;;5049004;28;20028;-73
2023/06/02 08:48:47;;;;;;;12.15;7.38;;;18.30;85.70;;;;;;5042917;28;20072;-72
2023/06/02 08:51:29;;;;;;;11.38;6.97;;;18.30;85.60;;;;;;5042355;28;20031;-72
2023/06/02 08:54:06;;;;;;;12.63;7.35;;;18.30;85.40;;;;;;5043050;28;20555;-72
2023/06/02 08:56:31;;;;;;;10.55;7.47;;;18.40;85.00;;;;;;5045594;28;20364;-71
2023/06/02 08:59:00;;;;;;;10.80;7.28;;;18.50;84.30;;;;;;5044062;28;20083;-72
2023/06/02 09:01:26;;;;;;;13.35;7.28;;;18.60;84.00;;;;;;5045120;28;20425;-72
2023/06/02 09:03:52;;;;;;;16.55;8.38;;;18.60;84.00;;;;;;5045312;28;20043;-73
2023/06/02 09:06:21;;;;;;;11.40;7.00;;;18.60;84.10;;;;;;5046653;28;20033;-72
2023/06/02 09:08:58;;;;;;;13.13;7.60;;;18.70;84.40;;;;;;5046147;28;20017;-72
2023/06/02 09:11:28;;;;;;;14.60;6.80;;;18.70;84.90;;;;;;5044560;28;20029;-72
2023/06/02 09:13:55;;;;;;;12.10;8.25;;;18.80;85.00;;;;;;5047335;28;20154;-72
2023/06/02 09:16:22;;;;;;;13.52;8.00;;;18.80;84.80;;;;;;5046767;28;20029;-72
2023/06/02 09:19:06;;;;;;;13.68;7.93;;;19.00;84.70;;;;;;5040751;28;20565;-72
2023/06/02 09:21:33;;;;;;;;;;;19.00;83.50;;;;;;5045405;28;20060;-72
2023/06/02 09:24:02;;;;;;;13.40;8.05;;;19.00;83.40;;;;;;5044304;28;20003;-70
2023/06/02 09:26:30;;;;;;;17.27;8.00;;;19.00;83.70;;;;;;5043134;28;20219;-72
2023/06/02 09:29:12;;;;;;;13.05;6.45;;;19.10;84.10;;;;;;5046227;28;20028;-72
2023/06/02 09:31:51;;;;;;;11.90;7.47;;;19.10;83.90;;;;;;5038299;28;20021;-73
2023/06/02 09:34:18;;;;;;;14.77;7.43;;;19.20;83.10;;;;;;5044228;28;20025;-72
2023/06/02 09:36:47;;;;;;;9.38;6.85;;;19.20;82.60;;;;;;5044493;28;20487;-73
2023/06/02 09:39:13;;;;;;;14.60;7.45;;;19.30;82.60;;;;;;5043678;28;20189;-72
2023/06/02 09:41:53;;;;;;;13.30;7.55;;;19.40;82.30;;;;;;5044310;28;20199;-72
2023/06/02 09:44:28;;;;;;;12.57;6.55;;;19.40;81.20;;;;;;5030193;28;20061;-73
2023/06/02 09:47:02;;;;;;;11.77;7.55;;;19.50;81.20;;;;;;5042711;28;20442;-74
2023/06/02 09:49:48;;;;;;;15.45;7.55;;;19.50;81.30;;;;;;5045083;28;20024;-73
2023/06/02 09:52:17;;;;;;;22.17;7.70;;;19.50;81.90;;;;;;5038440;28;20041;-74
2023/06/02 09:54:47;;;;;;;10.93;6.90;;;19.60;82.20;;;;;;5046970;28;20052;-73
2023/06/02 09:57:14;;;;;;;17.45;6.65;;;19.60;81.80;;;;;;5042652;28;20116;-74
2023/06/02 09:59:40;;;;;;;12.30;6.68;;;19.70;81.40;;;;;;5041321;28;20426;-73
2023/06/02 10:02:09;;;;;;;12.57;6.95;;;19.70;79.80;;;;;;5043033;28;20083;-74
2023/06/02 10:04:38;;;;;;;11.18;7.10;;;19.80;80.20;;;;;;5046294;28;20025;-74
2023/06/02 10:07:28;;;;;;;9.38;6.75;;;19.80;80.50;;;;;;5044863;28;20112;-73
2023/06/02 10:10:13;;;;;;;12.57;6.38;;;19.90;80.40;;;;;;5046608;28;20430;-73
2023/06/02 10:13:00;;;;;;;12.05;6.25;;;19.90;79.20;;;;;;5043726;28;20037;-73
2023/06/02 10:15:37;;;;;;;15.07;6.85;;;20.00;78.90;;;;;;5044484;28;20100;-73
2023/06/02 10:18:24;;;;;;;17.20;7.60;;;20.00;80.20;;;;;;5041586;28;20071;-73
2023/06/02 10:21:37;;;;;;;13.77;6.78;;;20.10;80.50;;;;;;5042644;28;20078;-73
2023/06/02 10:24:25;;;;;;;12.50;6.68;;;20.10;80.40;;;;;;5002399;28;20473;-73
2023/06/02 10:27:21;;;;;;;11.43;8.02;;;20.20;80.60;;;;;;5002064;28;20034;-73
2023/06/02 10:29:51;;;;;;;14.18;6.80;;;20.20;80.00;;;;;;5037340;28;20420;-73
2023/06/02 10:32:24;;;;;;;12.32;7.07;;;20.20;79.40;;;;;;5040817;28;20414;-74
2023/06/02 10:34:51;;;;;;;12.70;6.85;;;20.20;79.10;;;;;;5046555;28;20017;-74
2023/06/02 10:37:18;;;;;;;11.18;6.82;;;20.30;78.70;;;;;;5045582;28;20036;-74
2023/06/02 10:39:44;;;;;;;12.90;5.95;;;20.30;78.70;;;;;;5044166;28;20537;-74
2023/06/02 10:42:14;;;;;;;12.45;5.97;;;20.40;78.40;;;;;;5046191;28;20111;-73
2023/06/02 10:44:40;;;;;;;10.35;6.35;;;20.40;78.20;;;;;;5062833;28;20025;-73
2023/06/02 10:47:18;;;;;;;11.70;6.45;;;20.50;77.90;;;;;;5055611;28;20029;-73
2023/06/02 10:50:04;;;;;;;11.25;6.60;;;20.60;77.50;;;;;;5047362;28;20064;-73
2023/06/02 10:52:32;;;;;;;10.95;6.47;;;20.60;77.40;;;;;;5057615;28;20049;-73
2023/06/02 10:55:07;;;;;;;12.18;6.78;;;20.60;77.60;;;;;;5044207;28;20486;-73
2023/06/02 10:58:01;;;;;;;11.65;6.07;;;20.60;78.20;;;;;;5063824;28;20664;-74
2023/06/02 11:00:35;;;;;;;;;;;20.70;78.10;;;;;;5043063;28;20033;-74
2023/06/02 11:03:04;;;;;;;9.43;6.75;;;20.70;78.20;;;;;;5047275;28;19987;-74
2023/06/02 11:05:31;;;;;;;9.35;6.63;;;20.80;77.70;;;;;;5048913;28;20502;-74
2023/06/02 11:08:18;;;;;;;11.68;6.55;;;20.70;77.30;;;;;;5048871;28;20071;-74
2023/06/02 11:10:47;;;;;;;12.25;7.07;;;20.80;77.00;;;;;;5045934;28;20487;-74
2023/06/02 11:13:14;;;;;;;14.10;6.47;;;20.80;77.00;;;;;;5046708;28;20037;-73
2023/06/02 11:16:06;;;;;;;9.73;6.57;;;20.80;76.90;;;;;;5048074;28;20111;-74
2023/06/02 11:18:32;;;;;;;;;;;;;;;;;;;;;
2023/06/02 11:21:00;;;;;;;10.30;6.38;;;20.80;76.40;;;;;;5071330;22;21372;-74
2023/06/02 11:23:26;;;;;;;11.57;6.22;;;20.80;76.80;;;;;;5065782;28;20520;-75
2023/06/02 11:26:01;;;;;;;12.73;7.45;;;20.90;77.30;;;;;;5064261;28;20028;-74
2023/06/02 11:28:27;;;;;;;15.75;6.13;;;20.90;77.30;;;;;;5082388;28;20025;-75
2023/06/02 11:31:14;;;;;;;12.18;6.70;;;21.00;77.40;;;;;;5070096;28;20548;-74
2023/06/02 11:33:52;;;;;;;10.68;6.60;;;21.10;77.40;;;;;;5070211;28;20031;-74
2023/06/02 11:36:39;;;;;;;13.50;6.28;;;21.00;76.80;;;;;;5071908;28;20028;-75
2023/06/02 11:39:06;;;;;;;14.57;6.38;;;21.00;76.80;;;;;;5068423;28;20021;-74
2023/06/02 11:41:32;;;;;;;9.20;6.00;;;21.00;76.80;;;;;;5066599;28;20115;-74
2023/06/02 11:44:11;;;;;;;8.75;5.78;;;21.00;76.90;;;;;;5073765;28;20162;-74
2023/06/02 11:46:41;;;;;;;10.25;5.70;;;21.10;76.50;;;;;;5071180;28;20037;-75
2023/06/02 11:49:07;;;;;;;9.52;5.43;;;21.10;76.60;;;;;;5073617;28;20016;-75
2023/06/02 11:51:33;;;;;;;12.30;6.15;;;21.10;76.30;;;;;;5068608;28;20034;-74
2023/06/02 11:54:03;;;;;;;10.63;6.13;;;21.10;75.50;;;;;;5068940;28;20028;-74
2023/06/02 11:56:31;;;;;;;8.18;6.25;;;21.20;76.10;;;;;;5068000;28;20749;-75
2023/06/02 11:58:57;;;;;;;10.02;5.68;;;21.20;76.60;;;;;;5073211;28;20058;-75
2023/06/02 12:01:22;;;;;;;8.23;5.85;;;21.20;76.60;;;;;;5066977;28;20036;-75
2023/06/02 12:04:01;;;;;;;8.18;5.90;;;21.30;76.90;;;;;;5069954;28;20158;-74
2023/06/02 12:06:27;;;;;;;9.57;5.82;;;21.30;76.70;;;;;;5068746;28;20024;-74
2023/06/02 12:08:53;;;;;;;8.98;4.93;;;21.40;76.80;;;;;;5067708;28;20390;-75
2023/06/02 12:11:22;;;;;;;11.20;6.13;;;21.40;76.70;;;;;;5070471;28;20040;-74
2023/06/02 12:13:57;;;;;;;12.30;5.18;;;21.50;76.10;;;;;;5075434;28;20044;-75
2023/06/02 12:16:24;;;;;;;8.65;5.30;;;21.50;76.20;;;;;;5071029;28;20028;-74
2023/06/02 12:18:50;;;;;;;19.45;6.15;;;21.50;75.60;;;;;;5071117;28;20024;-75
2023/06/02 12:21:29;;;;;;;8.57;6.18;;;21.60;75.70;;;;;;5069232;28;20028;-75
2023/06/02 12:23:56;;;;;;;8.43;5.72;;;21.60;75.80;;;;;;5069306;28;20024;-74
2023/06/02 12:26:24;;;;;;;7.50;5.45;;;21.60;75.80;;;;;;5069441;28;20020;-75
2023/06/02 12:28:50;;;;;;;8.48;4.88;;;21.60;75.30;;;;;;5068911;28;20478;-74
2023/06/02 12:31:19;;;;;;;12.07;5.60;;;21.60;74.90;;;;;;5066269;28;20012;-74
2023/06/02 12:33:45;;;;;;;8.63;5.93;;;21.70;75.20;;;;;;5070407;28;20390;-75
2023/06/02 12:36:12;;;;;;;9.57;4.88;;;21.70;74.80;;;;;;5074305;28;20059;-75
2023/06/02 12:38:38;;;;;;;9.57;5.05;;;21.80;75.00;;;;;;5068387;28;20039;-74
2023/06/02 12:41:10;;;;;;;9.45;5.40;;;21.80;74.90;;;;;;5068127;28;20674;-73
2023/06/02 12:43:45;;;;;;;9.70;4.57;;;21.80;73.90;;;;;;5063706;28;20098;-74
2023/06/02 12:46:11;;;;;;;8.90;4.35;;;21.90;73.50;;;;;;5084294;28;20029;-71
2023/06/02 12:48:38;;;;;;;10.05;4.70;;;21.90;73.40;;;;;;5073555;28;20062;-71
2023/06/02 12:51:04;;;;;;;10.00;5.07;;;21.90;73.50;;;;;;5061001;28;20422;-71
2023/06/02 12:53:30;;;;;;;8.07;4.70;;;22.00;73.10;;;;;;5072951;28;20104;-71